Time;durP1;ratioP1;P1;durP2;ratioP2;P2;SDS_P1;SDS_P2;PMS_P1;PMS_P2;Temp;Humidity;BMP_temperature;BMP_pressure;BME280_temperature;BME280_humidity;BME280_pressure;Samples;Min_cycle;Max_cycle;Signal;HPM_P1;HPM_P2
2022/12/13 00:00:22;;;;;;;14.95;9.52;;;;;;;-3.49;63.23;98763.13;5112928;28;20207;-72
2022/12/13 00:02:53;;;;;;;12.60;9.32;;;;;;;-2.85;63.23;98840.28;5095123;28;20036;-72
2022/12/13 00:05:20;;;;;;;11.77;8.82;;;;;;;-2.87;63.17;98844.63;5113152;28;20055;-71
2022/12/13 00:07:47;;;;;;;11.65;8.93;;;;;;;-3.52;63.22;98788.19;5112568;28;20077;-71
2022/12/13 00:10:14;;;;;;;12.40;9.73;;;;;;;-2.91;63.31;98836.91;5112651;28;20044;-71
2022/12/13 00:12:41;;;;;;;12.70;10.00;;;;;;;-2.91;63.16;98842.94;5095696;28;20227;-69
2022/12/13 00:15:09;;;;;;;12.73;8.73;;;;;;;-2.91;63.11;98857.66;5112337;28;20044;-71
2022/12/13 00:17:36;;;;;;;10.82;8.25;;;;;;;-4.12;63.18;98673.84;5112222;28;20040;-71
2022/12/13 00:20:05;;;;;;;12.82;9.25;;;;;;;-2.93;63.31;98846.44;5112590;28;20039;-71
2022/12/13 00:22:32;;;;;;;12.25;8.85;;;;;;;-2.96;63.09;98840.41;5112610;28;20173;-71
2022/12/13 00:24:59;;;;;;;12.20;9.00;;;;;;;-2.97;63.09;98843.88;5112135;28;20200;-71
2022/12/13 00:27:26;;;;;;;12.73;9.90;;;;;;;-2.98;63.25;98844.75;5111579;28;20055;-70
2022/12/13 00:29:52;;;;;;;13.75;9.18;;;;;;;-3.00;63.17;98841.31;5112372;28;20032;-71
2022/12/13 00:32:19;;;;;;;11.98;8.68;;;;;;;-3.58;63.12;98773.56;5112283;28;20036;-70
2022/12/13 00:34:47;;;;;;;13.10;9.38;;;;;;;-3.97;62.90;98671.13;5112590;28;20207;-71
2022/12/13 00:37:15;;;;;;;14.52;9.07;;;;;;;-3.03;63.38;98837.88;5112357;28;20050;-70
2022/12/13 00:39:42;;;;;;;14.38;8.95;;;;;;;-3.15;63.18;98820.69;5112214;28;20032;-70
2022/12/13 00:42:10;;;;;;;13.38;8.77;;;;;;;-3.04;63.32;98839.59;5111701;28;20181;-71
2022/12/13 00:44:37;;;;;;;12.15;9.35;;;;;;;-8.03;62.86;97996.63;5112942;28;20358;-71
2022/12/13 00:47:04;;;;;;;13.98;8.82;;;;;;;-4.21;63.04;98643.72;5111361;28;20145;-70
2022/12/13 00:49:30;;;;;;;14.77;9.05;;;;;;;-3.64;63.15;98745.94;5111095;28;20043;-71
2022/12/13 00:51:57;;;;;;;13.82;9.07;;;;;;;-3.70;63.01;98737.38;5111330;28;20076;-71
2022/12/13 00:54:25;;;;;;;12.93;8.70;;;;;;;-6.03;63.08;98348.63;5111106;28;20097;-71
2022/12/13 00:56:52;;;;;;;13.73;8.88;;;;;;;-3.12;63.20;98848.31;5112263;28;20036;-71
2022/12/13 00:59:19;;;;;;;13.07;9.13;;;;;;;-3.12;63.17;98848.31;5095139;28;20036;-71
2022/12/13 01:01:47;;;;;;;13.02;9.30;;;;;;;-3.13;63.34;98877.72;5094612;28;20040;-71
2022/12/13 01:04:14;;;;;;;13.38;9.70;;;;;;;-6.23;63.13;98341.81;5094729;28;20201;-71
2022/12/13 01:06:43;;;;;;;12.95;8.85;;;;;;;-3.12;63.08;98850.91;5111579;28;20043;-72
2022/12/13 01:09:17;;;;;;;14.63;9.27;;;;;;;-4.93;62.96;98595.03;5111957;28;20043;-72
2022/12/13 01:11:45;;;;;;;12.97;9.97;;;;;;;-3.18;63.24;98851.84;5112279;28;20044;-72
2022/12/13 01:14:13;;;;;;;12.18;9.20;;;;;;;-4.89;63.28;98612.25;5112000;28;20078;-71
2022/12/13 01:16:40;;;;;;;15.50;9.70;;;;;;;-4.34;63.28;98653.28;5112293;28;20036;-71
2022/12/13 01:19:06;;;;;;;15.20;10.10;;;;;;;-3.20;63.42;98840.63;5112189;28;20054;-71
2022/12/13 01:21:33;;;;;;;12.50;9.35;;;;;;;-8.06;63.15;98228.03;5111197;28;20039;-71
2022/12/13 01:24:02;;;;;;;14.30;9.38;;;;;;;-10.46;62.98;97618.97;5111349;28;20048;-71
2022/12/13 01:26:29;;;;;;;15.15;10.73;;;;;;;-3.21;63.55;98845.81;5110383;28;20060;-71
2022/12/13 01:28:57;;;;;;;12.27;8.93;;;;;;;-3.25;63.63;98841.53;5109575;28;20058;-71
2022/12/13 01:31:24;;;;;;;15.00;10.60;;;;;;;-4.26;63.57;98673.94;5110723;28;20113;-71
2022/12/13 01:33:51;;;;;;;13.00;9.88;;;;;;;-3.28;63.63;98832.91;5109876;28;20052;-71
2022/12/13 01:36:22;;;;;;;14.70;10.30;;;;;;;-3.29;63.61;98833.78;5111310;28;20044;-71
2022/12/13 01:38:49;;;;;;;13.57;9.52;;;;;;;-3.30;63.67;98837.25;5112400;28;20043;-72
2022/12/13 01:41:17;;;;;;;14.65;9.98;;;;;;;-3.30;63.60;98837.25;5110575;28;20177;-71
2022/12/13 01:43:53;;;;;;;14.30;10.10;;;;;;;-3.32;63.40;98835.53;5110938;28;20040;-71
2022/12/13 01:46:21;;;;;;;13.63;10.68;;;;;;;-3.31;63.63;98842.44;5111002;28;20062;-71
2022/12/13 01:48:53;;;;;;;15.10;11.63;;;;;;;-3.34;63.63;98834.69;5109886;28;20040;-71
2022/12/13 01:51:25;;;;;;;14.82;10.82;;;;;;;-3.35;63.94;98836.41;5109818;28;20040;-71
2022/12/13 01:53:54;;;;;;;11.43;9.07;;;;;;;-4.12;63.64;98702.31;5110020;28;20051;-72
2022/12/13 01:56:26;;;;;;;13.82;9.00;;;;;;;-3.37;63.81;98834.72;5110747;28;20036;-72
2022/12/13 01:58:55;;;;;;;16.52;10.30;;;;;;;-5.34;63.54;98502.25;5110015;28;20055;-72
2022/12/13 02:01:25;;;;;;;13.65;9.07;;;;;;;-3.40;63.64;98827.81;5109625;28;20047;-71
2022/12/13 02:03:52;;;;;;;13.60;9.52;;;;;;;-3.41;63.59;98833.00;5110383;28;20051;-72
2022/12/13 02:06:26;;;;;;;14.77;9.93;;;;;;;-3.44;63.89;98828.72;5109919;28;20040;-72
2022/12/13 02:08:53;;;;;;;10.98;8.57;;;;;;;-16.13;62.68;96743.66;5110695;28;20047;-72
2022/12/13 02:11:21;;;;;;;13.98;9.35;;;;;;;-3.44;63.79;98827.84;5110470;28;20036;-72
2022/12/13 02:13:48;;;;;;;12.38;9.30;;;;;;;-3.47;63.68;98830.47;5110080;28;20216;-71
2022/12/13 02:16:28;;;;;;;12.73;9.10;;;;;;;-19.30;62.29;96189.50;5110365;28;20044;-70
2022/12/13 02:19:25;;;;;;;11.93;9.02;;;;;;;-3.51;63.32;98914.25;5110921;28;20062;-70
2022/12/13 02:22:08;;;;;;;11.32;9.10;;;;;;;-3.54;63.14;98828.78;5093310;28;20044;-70
2022/12/13 02:25:02;;;;;;;14.70;10.55;;;;;;;-3.55;63.13;98829.66;5109880;28;20036;-70
2022/12/13 02:27:45;;;;;;;15.02;10.30;;;;;;;-4.20;63.19;98798.09;5108401;28;20062;-70
2022/12/13 02:30:34;;;;;;;13.30;9.05;;;;;;;-3.56;63.09;98822.75;5109056;28;20098;-69
2022/12/13 02:33:19;;;;;;;15.32;10.98;;;;;;;-3.57;63.30;98826.22;5109899;28;20047;-70
2022/12/13 02:35:53;;;;;;;13.48;9.88;;;;;;;-3.60;63.38;98815.00;5109435;28;20039;-69
2022/12/13 02:38:27;;;;;;;13.10;8.93;;;;;;;-3.60;63.36;98816.75;5110102;28;20105;-70
2022/12/13 02:41:00;;;;;;;13.20;9.38;;;;;;;-5.09;63.33;98569.28;5109324;28;20040;-70
2022/12/13 02:43:32;;;;;;;12.43;9.48;;;;;;;-3.64;63.38;98817.59;5108450;28;20308;-70
2022/12/13 02:46:03;;;;;;;12.57;9.70;;;;;;;-3.63;63.56;98820.19;5108360;28;20051;-69
2022/12/13 02:48:34;;;;;;;14.52;9.50;;;;;;;-4.23;63.54;98728.25;5107861;28;20058;-69
2022/12/13 02:51:03;;;;;;;13.52;9.57;;;;;;;-3.60;63.67;98817.59;5109163;28;20040;-70
2022/12/13 02:53:31;;;;;;;16.30;10.00;;;;;;;-3.59;63.76;98818.47;5108798;28;20051;-70
2022/12/13 02:55:58;;;;;;;10.75;8.63;;;;;;;-3.58;63.63;98811.56;5108655;28;20044;-70
2022/12/13 02:58:30;;;;;;;13.88;9.00;;;;;;;-3.60;63.54;98815.00;5108985;28;20047;-69
2022/12/13 03:01:14;;;;;;;14.00;11.07;;;;;;;-6.30;63.06;98409.75;5109539;28;20104;-70
2022/12/13 03:03:48;;;;;;;14.23;10.05;;;;;;;-3.58;63.28;98817.59;5109685;28;20039;-70
2022/12/13 03:06:31;;;;;;;13.68;10.38;;;;;;;-3.57;63.23;98816.72;5108783;28;20040;-70
2022/12/13 03:09:25;;;;;;;11.85;8.73;;;;;;;-3.57;63.11;98816.72;5077343;28;20032;-70
2022/12/13 03:15:08;;;;;;;13.65;9.30;;;;;;;-3.57;63.64;98823.63;5108894;28;20040;-70
2022/12/13 03:17:43;;;;;;;10.98;8.73;;;;;;;-3.55;63.50;98837.44;5108886;28;20044;-70
2022/12/13 03:20:16;;;;;;;11.73;9.48;;;;;;;-3.56;63.60;98823.63;5108526;28;20040;-70
2022/12/13 03:22:43;;;;;;;13.02;9.18;;;;;;;-3.55;63.49;98824.47;5108178;28;20044;-70
2022/12/13 03:25:09;;;;;;;13.48;9.32;;;;;;;-3.63;63.49;98808.97;5109176;28;20308;-70
2022/12/13 03:27:36;;;;;;;14.38;10.13;;;;;;;-5.55;63.52;98486.88;5109484;28;20131;-70
2022/12/13 03:30:03;;;;;;;11.60;8.90;;;;;;;-3.54;63.61;98826.19;5109010;28;20057;-70
2022/12/13 03:32:30;;;;;;;12.05;9.20;;;;;;;-3.55;63.63;98824.47;5109549;28;20246;-70
2022/12/13 03:34:58;;;;;;;13.18;10.68;;;;;;;-3.58;63.86;98820.19;5112637;28;20052;-70
2022/12/13 03:37:25;;;;;;;12.52;9.13;;;;;;;-3.58;63.57;98819.31;5112294;28;20047;-69
2022/12/13 03:39:52;;;;;;;12.52;10.07;;;;;;;-3.56;63.69;98817.56;5111803;28;20036;-70
2022/12/13 03:42:19;;;;;;;13.43;8.93;;;;;;;-3.56;63.88;98820.16;5111476;28;20074;-70
2022/12/13 03:44:45;;;;;;;13.10;9.10;;;;;;;-3.58;63.40;98816.72;5112634;28;20044;-69
2022/12/13 03:47:12;;;;;;;13.70;9.32;;;;;;;-3.60;63.67;98812.41;5112202;28;20047;-70
2022/12/13 03:49:39;;;;;;;12.13;9.23;;;;;;;-3.63;63.74;98820.19;5110725;28;20040;-70
2022/12/13 03:52:07;;;;;;;14.10;9.52;;;;;;;-4.25;63.63;98709.28;5111030;28;20046;-69
2022/12/13 03:54:34;;;;;;;13.48;9.13;;;;;;;-3.62;63.61;98818.44;5111619;28;20115;-69
2022/12/13 03:57:01;;;;;;;11.65;9.00;;;;;;;-3.59;63.51;98815.88;5111896;28;20052;-70
2022/12/13 03:59:28;;;;;;;13.15;9.25;;;;;;;-3.56;63.41;98807.22;5111466;28;20040;-70
2022/12/13 04:01:54;;;;;;;13.23;9.75;;;;;;;-4.04;63.50;98732.44;5110168;28;20044;-70
2022/12/13 04:04:21;;;;;;;13.50;9.60;;;;;;;-3.56;63.43;98809.81;5111998;28;20227;-70
2022/12/13 04:06:48;;;;;;;12.52;8.82;;;;;;;-3.57;63.52;98802.91;5111978;28;20044;-70
2022/12/13 04:09:16;;;;;;;13.20;9.38;;;;;;;-3.58;63.50;98808.97;5111553;28;20051;-70
2022/12/13 04:14:27;;;;;;;11.50;8.57;;;;;;;-3.60;63.77;98807.25;5111259;28;20044;-70
2022/12/13 04:16:54;;;;;;;13.85;9.18;;;;;;;-3.62;63.64;98803.78;5111162;28;20085;-70
2022/12/13 04:19:20;;;;;;;12.57;8.90;;;;;;;-3.62;63.51;98806.34;5110703;28;20066;-70
2022/12/13 04:21:47;;;;;;;14.63;9.20;;;;;;;-4.77;63.52;98605.28;5110835;28;20085;-70
2022/12/13 04:24:15;;;;;;;11.82;8.68;;;;;;;-3.62;63.52;98798.59;5111914;28;20039;-70
2022/12/13 04:26:43;;;;;;;12.18;9.45;;;;;;;-3.63;63.63;98796.00;5111181;28;20074;-70
2022/12/13 04:29:10;;;;;;;14.52;10.10;;;;;;;-3.63;63.68;98796.88;5111829;28;20066;-70
2022/12/13 04:31:37;;;;;;;13.18;9.40;;;;;;;-3.65;63.62;98788.25;5110512;28;20040;-70
2022/12/13 04:34:04;;;;;;;13.63;9.32;;;;;;;-3.65;63.65;98789.97;5094841;28;20036;-69
2022/12/13 04:36:31;;;;;;;14.32;10.13;;;;;;;-3.66;63.76;98786.53;5110953;28;20040;-70
2022/12/13 04:38:58;;;;;;;13.90;9.40;;;;;;;-3.66;63.80;98789.13;5111628;28;20051;-71
2022/12/13 04:41:25;;;;;;;14.20;9.10;;;;;;;-6.56;63.51;98295.53;5110741;28;20051;-71
2022/12/13 04:43:54;;;;;;;17.83;11.30;;;;;;;-3.68;63.63;98788.28;5111597;28;20250;-70
2022/12/13 04:46:22;;;;;;;17.95;10.63;;;;;;;-3.71;63.75;98795.22;5111466;28;20052;-70
2022/12/13 04:48:49;;;;;;;14.85;10.20;;;;;;;-3.75;64.19;98791.78;5093855;28;20338;-71
2022/12/13 04:51:16;;;;;;;19.88;11.32;;;;;;;-5.50;64.10;98503.19;5093817;28;20054;-71
2022/12/13 04:53:43;;;;;;;15.38;10.43;;;;;;;-6.96;63.98;98256.22;5110789;28;20044;-70
2022/12/13 04:56:10;;;;;;;16.20;9.75;;;;;;;-3.80;64.29;98783.19;5110641;28;20226;-70
2022/12/13 04:58:36;;;;;;;17.98;10.15;;;;;;;-3.81;64.21;98788.38;5110491;28;20052;-71
2022/12/13 05:01:08;;;;;;;19.25;11.38;;;;;;;-5.85;64.07;98446.56;5110843;28;20044;-70
2022/12/13 05:03:35;;;;;;;16.55;9.68;;;;;;;-4.43;64.56;98680.94;5110918;28;20052;-70
2022/12/13 05:06:05;;;;;;;15.18;10.40;;;;;;;-3.85;64.49;98784.09;5093423;28;20036;-70
2022/12/13 05:08:31;;;;;;;13.85;9.90;;;;;;;-3.87;64.57;98788.41;5109877;28;20128;-71
2022/12/13 05:10:58;;;;;;;13.07;9.45;;;;;;;-4.62;64.54;98664.66;5109743;28;20036;-70
2022/12/13 05:13:25;;;;;;;15.57;11.43;;;;;;;-3.89;64.73;98779.78;5110153;28;20073;-71
2022/12/13 05:15:55;;;;;;;14.45;10.23;;;;;;;-3.89;64.40;98779.78;5109171;28;20211;-71
2022/12/13 05:18:23;;;;;;;13.32;10.35;;;;;;;-3.91;64.81;98793.63;5108386;28;20319;-71
2022/12/13 05:20:51;;;;;;;13.43;10.13;;;;;;;-3.93;64.81;98791.91;5110048;28;20040;-71
2022/12/13 05:23:19;;;;;;;15.00;10.55;;;;;;;-4.67;64.72;98671.59;5109601;28;20304;-71
2022/12/13 05:25:46;;;;;;;15.20;10.18;;;;;;;-3.95;64.89;98789.31;5109994;28;20086;-71
2022/12/13 05:28:13;;;;;;;14.73;12.05;;;;;;;-4.62;64.89;98771.56;5110381;28;20058;-70
2022/12/13 05:30:40;;;;;;;13.02;9.73;;;;;;;-6.41;64.63;98387.44;5108482;28;20039;-71
2022/12/13 05:33:07;;;;;;;16.88;10.85;;;;;;;-4.03;65.05;98787.66;5109778;28;20044;-70
2022/12/13 05:35:35;;;;;;;15.50;11.25;;;;;;;-6.65;64.79;98353.13;5092720;28;20055;-71
2022/12/13 05:38:02;;;;;;;14.60;10.00;;;;;;;-4.06;65.03;98791.13;5109823;28;20281;-70
2022/12/13 05:40:31;;;;;;;14.90;10.52;;;;;;;-4.09;65.02;98792.84;5111031;28;20040;-71
2022/12/13 05:42:59;;;;;;;14.32;11.20;;;;;;;-4.73;65.11;98723.34;5109800;28;20246;-71
2022/12/13 05:45:26;;;;;;;17.33;11.32;;;;;;;-4.19;64.92;98788.59;5110527;28;20036;-71
2022/12/13 05:47:53;;;;;;;12.15;8.95;;;;;;;-4.28;64.92;98789.50;5110810;28;20062;-71
2022/12/13 05:50:20;;;;;;;12.20;9.80;;;;;;;-11.14;64.86;98154.38;5093447;28;20051;-71
2022/12/13 05:52:49;;;;;;;15.57;10.52;;;;;;;-4.44;65.20;98795.63;5093151;28;20040;-71
2022/12/13 05:55:16;;;;;;;15.63;10.70;;;;;;;-4.49;65.54;98800.81;5109770;28;20044;-71
2022/12/13 05:57:44;;;;;;;16.90;12.13;;;;;;;-7.65;65.46;98276.06;5077422;28;20048;-70
2022/12/13 06:00:12;;;;;;;16.42;11.93;;;;;;;-6.62;65.59;98461.38;5110304;28;20040;-71
2022/12/13 06:02:40;;;;;;;22.90;13.65;;;;;;;-4.60;65.70;98806.03;5110312;28;20051;-71
2022/12/13 06:05:10;;;;;;;24.77;14.27;;;;;;;-10.42;65.38;97942.53;5110389;28;20047;-71
2022/12/13 06:07:39;;;;;;;23.10;14.32;;;;;;;-4.58;65.84;98803.44;5109474;28;20040;-71
2022/12/13 06:10:09;;;;;;;22.15;13.63;;;;;;;-5.59;65.69;98633.19;5109535;28;20036;-71
2022/12/13 06:12:37;;;;;;;22.50;14.35;;;;;;;-4.62;65.87;98806.88;5110764;28;20040;-71
2022/12/13 06:15:05;;;;;;;19.95;13.48;;;;;;;-9.56;65.50;97974.44;5093500;28;20175;-71
2022/12/13 06:17:32;;;;;;;17.75;11.23;;;;;;;-8.48;65.51;98150.03;5109253;28;20044;-71
2022/12/13 06:19:59;;;;;;;22.08;13.38;;;;;;;-4.61;65.62;98804.31;5109453;28;20044;-71
2022/12/13 06:22:27;;;;;;;17.85;10.50;;;;;;;-4.60;65.59;98812.91;5109290;28;20039;-71
2022/12/13 06:24:54;;;;;;;17.23;11.70;;;;;;;-4.68;65.70;98801.75;5109787;28;20173;-71
2022/12/13 06:27:22;;;;;;;19.50;11.52;;;;;;;-4.59;65.78;98807.75;5108833;28;20071;-71
2022/12/13 06:29:49;;;;;;;17.65;12.30;;;;;;;-6.97;65.47;98396.16;5108704;28;20050;-71
2022/12/13 06:32:16;;;;;;;13.82;10.45;;;;;;;-7.06;65.55;98388.44;5110115;28;20300;-71
2022/12/13 06:34:43;;;;;;;17.85;12.05;;;;;;;-9.58;65.35;97956.50;5109019;28;20102;-71
2022/12/13 06:37:13;;;;;;;20.33;13.30;;;;;;;-4.53;65.69;98818.94;5092473;28;20204;-71
2022/12/13 06:39:40;;;;;;;19.05;13.40;;;;;;;-14.60;64.80;97124.06;5108948;28;20040;-71
2022/12/13 06:42:14;;;;;;;15.98;11.20;;;;;;;-6.05;65.56;98560.16;5092969;28;20040;-71
2022/12/13 06:44:45;;;;;;;16.75;11.35;;;;;;;-4.61;65.79;98817.22;5109455;28;20051;-71
2022/12/13 06:47:12;;;;;;;14.93;11.13;;;;;;;-15.08;65.04;97066.91;5109857;28;20048;-71
2022/12/13 06:49:41;;;;;;;24.25;15.23;;;;;;;-4.73;65.88;98840.53;5110135;28;20086;-71
2022/12/13 06:52:10;;;;;;;30.45;18.08;;;;;;;-6.83;65.93;98593.66;5110293;28;20036;-71
2022/12/13 06:54:37;;;;;;;23.88;15.40;;;;;;;-4.80;66.17;98825.91;5092927;28;20044;-71
2022/12/13 06:57:06;;;;;;;18.70;13.23;;;;;;;-4.79;66.24;98829.34;5109811;28;20056;-71
2022/12/13 06:59:33;;;;;;;17.60;13.45;;;;;;;-7.74;65.74;98729.72;5110177;28;20040;-71
2022/12/13 07:02:04;;;;;;;19.73;13.88;;;;;;;-4.91;66.04;98822.47;5109286;28;20063;-71
2022/12/13 07:04:34;;;;;;;19.35;13.57;;;;;;;-4.90;66.33;98827.66;5110550;28;20035;-70
2022/12/13 07:07:01;;;;;;;15.52;12.10;;;;;;;-4.94;66.30;98825.94;5109590;28;20054;-70
2022/12/13 07:09:29;;;;;;;16.30;12.07;;;;;;;-4.98;66.22;98831.97;5112974;28;20093;-71
2022/12/13 07:11:56;;;;;;;20.95;12.38;;;;;;;-4.99;66.35;98832.84;5113617;28;20035;-71
2022/12/13 07:14:23;;;;;;;17.02;12.30;;;;;;;-5.67;66.38;98740.75;5096897;28;20115;-71
2022/12/13 07:16:52;;;;;;;15.35;11.07;;;;;;;-5.01;66.46;98838.88;5114788;28;20036;-71
2022/12/13 07:19:21;;;;;;;18.13;11.95;;;;;;;-5.01;66.61;98838.88;5114472;28;20040;-71
2022/12/13 07:21:47;;;;;;;14.75;11.00;;;;;;;-4.98;66.57;98833.69;5113417;28;20032;-71
2022/12/13 07:24:16;;;;;;;15.77;10.15;;;;;;;-5.61;66.45;98781.22;5113412;28;20127;-71
2022/12/13 07:26:42;;;;;;;19.17;11.82;;;;;;;-4.94;66.59;98838.00;5096758;28;20376;-70
2022/12/13 07:29:10;;;;;;;17.52;11.88;;;;;;;-5.60;66.59;98767.44;5113559;28;20191;-71
2022/12/13 07:31:38;;;;;;;15.02;10.48;;;;;;;-4.94;66.35;98849.19;5096494;28;20154;-70
2022/12/13 07:34:08;;;;;;;20.50;12.50;;;;;;;-4.93;66.51;98853.50;5113457;28;20322;-72
2022/12/13 07:36:36;;;;;;;14.85;10.88;;;;;;;-4.92;66.40;98851.78;5114696;28;20044;-72
2022/12/13 07:39:03;;;;;;;17.38;10.73;;;;;;;-4.93;66.52;98861.25;5113843;28;20366;-72
2022/12/13 07:41:30;;;;;;;16.00;10.48;;;;;;;-4.90;66.63;98850.06;5114507;28;20040;-72
2022/12/13 07:43:57;;;;;;;13.43;9.80;;;;;;;-8.86;66.28;98196.16;5114381;28;20059;-71
2022/12/13 07:46:28;;;;;;;17.42;10.23;;;;;;;-4.86;66.57;98846.59;5113219;28;20123;-71
2022/12/13 07:48:55;;;;;;;13.85;10.27;;;;;;;-17.36;65.60;96807.50;5113027;28;20058;-72
2022/12/13 07:51:22;;;;;;;16.95;12.55;;;;;;;-4.72;66.22;98852.59;5113367;28;20044;-71
2022/12/13 07:53:52;;;;;;;16.48;10.43;;;;;;;-4.62;66.29;98840.50;5113478;28;20054;-71
2022/12/13 07:56:19;;;;;;;15.00;10.27;;;;;;;-5.16;66.30;98766.53;5114000;28;20066;-72
2022/12/13 07:58:46;;;;;;;38.40;22.00;;;;;;;-13.55;65.39;97314.03;5113699;28;20319;-72
2022/12/13 08:01:13;;;;;;;26.77;18.02;;;;;;;-7.03;65.75;98394.44;5111336;28;20048;-71
2022/12/13 08:03:40;;;;;;;19.10;12.98;;;;;;;-4.20;65.67;98846.41;5094072;28;20063;-72
2022/12/13 08:06:09;;;;;;;23.42;15.68;;;;;;;-4.07;65.45;98841.16;5111757;28;20044;-72
2022/12/13 08:08:37;;;;;;;31.27;20.13;;;;;;;-3.93;65.14;98829.00;5111916;28;20300;-73
2022/12/13 08:11:07;;;;;;;34.40;19.83;;;;;;;-3.79;64.99;98834.09;5095053;28;20040;-72
2022/12/13 08:13:35;;;;;;;30.42;18.77;;;;;;;-4.29;65.08;98762.78;5113090;28;20032;-71
2022/12/13 08:16:03;;;;;;;28.77;17.80;;;;;;;-5.43;64.48;98506.63;5112850;28;20048;-72
2022/12/13 08:18:30;;;;;;;24.45;15.13;;;;;;;-3.86;64.45;98791.00;5111801;28;20044;-72
2022/12/13 08:21:01;;;;;;;25.75;15.48;;;;;;;-5.22;63.87;98633.94;5111960;28;20047;-72
2022/12/13 08:23:29;;;;;;;19.73;12.82;;;;;;;-7.96;63.64;98097.75;5112888;28;20039;-71
2022/12/13 08:25:56;;;;;;;19.02;14.27;;;;;;;-8.05;63.46;98205.75;5112345;28;20123;-72
2022/12/13 08:28:28;;;;;;;20.25;12.73;;;;;;;-3.51;63.45;98719.97;5111765;28;20048;-72
2022/12/13 08:30:55;;;;;;;17.27;12.13;;;;;;;-5.77;63.41;98403.53;5112778;28;20032;-72
2022/12/13 08:33:22;;;;;;;18.50;13.27;;;;;;;-2.61;63.26;98826.22;5111760;28;20062;-71
2022/12/13 08:35:50;;;;;;;16.55;12.00;;;;;;;-2.50;63.17;98816.56;5113267;28;20036;-72
2022/12/13 08:38:17;;;;;;;17.80;12.82;;;;;;;-2.33;63.14;98870.88;5112903;28;20040;-72
2022/12/13 08:40:44;;;;;;;17.80;13.75;;;;;;;-15.00;62.16;96818.75;5111840;28;20048;-72
2022/12/13 08:43:11;;;;;;;18.92;11.90;;;;;;;-2.13;62.77;98817.00;5094234;28;20115;-72
2022/12/13 08:45:39;;;;;;;16.15;11.40;;;;;;;-8.31;61.99;97751.72;5112634;28;20031;-71
2022/12/13 08:48:07;;;;;;;17.55;12.40;;;;;;;-1.88;62.40;98814.94;5112740;28;20040;-72
2022/12/13 08:50:33;;;;;;;16.67;11.18;;;;;;;-9.35;61.57;97524.69;5111893;28;20051;-72
2022/12/13 08:53:00;;;;;;;15.68;11.55;;;;;;;-1.55;61.93;98867.28;5111492;28;20040;-71
2022/12/13 08:55:27;;;;;;;16.08;10.82;;;;;;;-1.43;61.52;98805.59;5110646;28;20039;-72
2022/12/13 08:57:54;;;;;;;19.65;11.68;;;;;;;-1.26;61.43;98813.13;5094560;28;20119;-72
2022/12/13 09:00:24;;;;;;;20.85;11.02;;;;;;;-1.10;61.40;98806.78;5111943;28;20035;-72
2022/12/13 09:02:57;;;;;;;17.67;10.90;;;;;;;-2.04;61.18;98623.88;5111268;28;20334;-72
2022/12/13 09:05:24;;;;;;;14.43;10.35;;;;;;;-0.75;60.90;98802.72;5112139;28;20048;-72
2022/12/13 09:07:55;;;;;;;14.45;10.88;;;;;;;-0.58;60.29;98803.28;5111590;28;20043;-72
2022/12/13 09:10:22;;;;;;;16.98;11.45;;;;;;;-0.99;60.34;98762.41;5112480;28;20066;-71
2022/12/13 09:12:49;;;;;;;16.02;11.75;;;;;;;-9.74;59.87;97344.56;5111910;28;20108;-71
2022/12/13 09:15:15;;;;;;;15.05;10.95;;;;;;;-0.08;60.28;98785.75;5113216;28;20055;-70
2022/12/13 09:17:42;;;;;;;15.27;11.80;;;;;;;0.10;60.12;98784.50;5112661;28;20044;-70
2022/12/13 09:20:12;;;;;;;21.10;12.88;;;;;;;-0.25;59.78;98699.31;5095598;28;20040;-70
2022/12/13 09:22:39;;;;;;;17.63;11.55;;;;;;;0.37;59.42;98778.66;5111736;28;20077;-70
2022/12/13 09:25:08;;;;;;;17.05;12.02;;;;;;;0.51;59.70;98778.34;5112621;28;20070;-71
2022/12/13 09:27:35;;;;;;;14.48;10.90;;;;;;;-1.80;59.27;98407.00;5111099;28;20127;-71
2022/12/13 09:30:02;;;;;;;16.60;11.68;;;;;;;0.89;59.16;98769.56;5111841;28;20040;-71
2022/12/13 09:32:29;;;;;;;17.17;9.93;;;;;;;0.97;57.48;98766.75;5110466;28;20040;-70
2022/12/13 09:34:56;;;;;;;12.70;9.98;;;;;;;0.97;57.03;98766.75;5111763;28;20102;-71
2022/12/13 09:37:24;;;;;;;10.77;7.93;;;;;;;-11.03;55.86;96923.94;5112645;28;20036;-70
2022/12/13 09:39:51;;;;;;;12.88;8.25;;;;;;;-0.54;57.15;98482.16;5112618;28;20207;-70
2022/12/13 09:42:22;;;;;;;11.70;8.55;;;;;;;0.30;56.63;98581.59;5111434;28;20048;-71
2022/12/13 09:44:52;;;;;;;12.32;7.82;;;;;;;-1.77;55.89;98215.56;5112103;28;20082;-71
2022/12/13 09:47:29;;;;;;;11.35;8.55;;;;;;;-0.51;54.42;98419.63;5094681;28;20036;-70
2022/12/13 09:49:55;;;;;;;12.13;8.77;;;;;;;1.50;56.00;98754.88;5110982;28;20404;-70
2022/12/13 09:52:25;;;;;;;14.95;8.68;;;;;;;1.55;55.14;98742.53;5110871;28;20036;-70
2022/12/13 09:54:55;;;;;;;13.23;9.23;;;;;;;1.64;55.47;98738.84;5111169;28;20069;-71
2022/12/13 09:57:30;;;;;;;13.90;10.20;;;;;;;1.37;55.25;98673.41;5111041;28;20040;-71
2022/12/13 09:59:57;;;;;;;12.82;8.57;;;;;;;1.84;55.75;98734.75;5110532;28;20300;-71
2022/12/13 10:02:27;;;;;;;12.95;8.50;;;;;;;0.75;55.11;98523.88;5110614;28;20039;-72
2022/12/13 10:04:55;;;;;;;15.95;9.68;;;;;;;2.08;55.17;98732.28;5110782;28;20038;-70
2022/12/13 10:07:25;;;;;;;11.85;8.93;;;;;;;1.18;54.77;98567.84;5109679;28;20059;-71
2022/12/13 10:10:00;;;;;;;10.18;7.85;;;;;;;2.22;52.69;98730.09;5110890;28;20040;-71
2022/12/13 10:12:28;;;;;;;12.65;8.07;;;;;;;2.28;54.20;98734.28;5110368;28;20342;-71
2022/12/13 10:14:59;;;;;;;9.85;6.78;;;;;;;1.39;54.11;98582.84;5110051;28;20043;-70
2022/12/13 10:17:32;;;;;;;12.63;7.05;;;;;;;2.33;52.66;98735.84;5110773;28;20039;-71
2022/12/13 10:20:00;;;;;;;11.10;7.13;;;;;;;2.36;52.98;98727.03;5110498;28;20051;-72
2022/12/13 10:22:28;;;;;;;11.23;7.32;;;;;;;2.35;53.06;98718.34;5109267;28;20032;-72
2022/12/13 10:24:59;;;;;;;9.27;7.57;;;;;;;1.89;53.33;98627.47;5109899;28;20040;-71
2022/12/13 10:27:29;;;;;;;10.43;7.95;;;;;;;1.23;52.53;98485.88;5110133;28;20056;-71
2022/12/13 10:30:09;;;;;;;12.00;7.70;;;;;;;0.53;49.52;98343.75;5110872;28;20054;-72
2022/12/13 10:32:45;;;;;;;11.00;6.82;;;;;;;2.71;49.37;98710.19;5109788;28;20078;-71
2022/12/13 10:35:22;;;;;;;11.18;6.65;;;;;;;2.74;49.97;98707.47;5110183;28;20040;-71
2022/12/13 10:37:50;;;;;;;13.23;8.02;;;;;;;2.75;52.43;98707.44;5109591;28;20089;-71
2022/12/13 10:40:30;;;;;;;10.65;6.80;;;;;;;2.87;49.52;98714.84;5110470;28;20052;-72
2022/12/13 10:43:09;;;;;;;10.13;7.63;;;;;;;2.97;49.30;98699.69;5111872;28;20123;-72
2022/12/13 10:45:36;;;;;;;12.48;7.95;;;;;;;2.94;51.94;98672.78;5114504;28;20044;-71
2022/12/13 10:48:04;;;;;;;10.05;7.78;;;;;;;1.82;51.50;98466.56;5114818;28;20043;-71
2022/12/13 10:50:31;;;;;;;9.77;7.70;;;;;;;3.21;51.49;98690.13;5114016;28;20115;-72
2022/12/13 10:53:00;;;;;;;12.52;7.78;;;;;;;2.94;50.61;98652.69;5114973;28;20054;-72
2022/12/13 10:55:32;;;;;;;10.30;7.20;;;;;;;3.07;51.08;98685.38;5113764;28;20059;-71
2022/12/13 10:58:01;;;;;;;10.20;7.90;;;;;;;-2.24;51.15;97980.47;5114111;28;20043;-72
2022/12/13 11:00:35;;;;;;;12.02;8.32;;;;;;;3.11;49.47;98678.25;5114936;28;20155;-72
2022/12/13 11:03:02;;;;;;;13.10;8.80;;;;;;;1.91;51.07;98468.88;5114733;28;20056;-72
2022/12/13 11:05:32;;;;;;;10.75;7.85;;;;;;;3.14;51.10;98668.53;5113325;28;20174;-72
2022/12/13 11:08:15;;;;;;;9.27;7.20;;;;;;;3.20;47.98;98668.31;5114643;28;20040;-72
2022/12/13 11:10:42;;;;;;;15.55;8.77;;;;;;;3.42;51.58;98665.75;5114298;28;20058;-72
2022/12/13 11:13:23;;;;;;;11.52;8.88;;;;;;;3.57;48.16;98660.84;5113970;28;20047;-72
2022/12/13 11:15:55;;;;;;;15.27;8.95;;;;;;;3.57;50.12;98658.22;5114985;28;20044;-72
2022/12/13 11:18:25;;;;;;;11.75;8.30;;;;;;;1.19;50.91;98238.06;5113038;28;20081;-71
2022/12/13 11:20:56;;;;;;;16.38;9.85;;;;;;;2.49;50.29;98438.88;5112076;28;20098;-72
2022/12/13 11:23:31;;;;;;;9.15;7.22;;;;;;;3.67;47.94;98656.97;5110414;28;20039;-72
2022/12/13 11:26:01;;;;;;;8.60;6.95;;;;;;;3.53;49.96;98655.72;5111694;28;20313;-72
2022/12/13 11:28:45;;;;;;;14.77;7.43;;;;;;;3.56;47.29;98653.91;5110353;28;20051;-72
2022/12/13 11:31:19;;;;;;;11.48;7.18;;;;;;;2.26;49.28;98431.03;5110796;28;20040;-72
2022/12/13 11:33:57;;;;;;;12.45;7.95;;;;;;;2.76;48.26;98480.63;5110525;28;20040;-72
2022/12/13 11:36:32;;;;;;;12.70;8.13;;;;;;;1.16;49.23;98251.22;5111044;28;20105;-72